Time;durP1;ratioP1;P1;durP2;ratioP2;P2;SDS_P1;SDS_P2;PMS_P1;PMS_P2;Temp;Humidity;BMP_temperature;BMP_pressure;BME280_temperature;BME280_humidity;BME280_pressure;Samples;Min_cycle;Max_cycle;Signal;HPM_P1;HPM_P2
2021/08/04 00:01:59;;;;;;;7.18;4.40;;;13.60;99.90;;;;;;4955448;29;20036;-90
2021/08/04 00:04:24;;;;;;;7.45;4.57;;;13.60;99.90;;;;;;4955400;29;20019;-89
2021/08/04 00:06:50;;;;;;;7.85;4.65;;;13.60;99.90;;;;;;4955386;29;20035;-90
2021/08/04 00:09:16;;;;;;;7.78;4.47;;;13.50;99.90;;;;;;4955972;29;20385;-90
2021/08/04 00:11:41;;;;;;;10.05;4.45;;;13.50;99.90;;;;;;4956070;29;20457;-91
2021/08/04 00:14:08;;;;;;;8.70;4.57;;;13.50;99.90;;;;;;4955411;29;20020;-91
2021/08/04 00:16:33;;;;;;;7.50;4.60;;;13.50;99.90;;;;;;4955525;29;20078;-90
2021/08/04 00:18:59;;;;;;;6.45;4.40;;;13.40;99.90;;;;;;4955290;29;20032;-91
2021/08/04 00:21:25;;;;;;;7.95;4.53;;;13.40;99.90;;;;;;4955018;29;20055;-92
2021/08/04 00:23:51;;;;;;;7.13;4.30;;;13.40;99.90;;;;;;4955044;29;20023;-91
2021/08/04 00:26:17;;;;;;;7.85;4.65;;;13.40;99.90;;;;;;4956318;29;20133;-91
2021/08/04 00:28:43;;;;;;;6.85;4.47;;;13.30;99.90;;;;;;4956587;29;20031;-90
2021/08/04 00:31:08;;;;;;;9.02;4.82;;;13.30;99.90;;;;;;4955874;29;20075;-91
2021/08/04 00:33:34;;;;;;;11.75;5.28;;;13.30;99.90;;;;;;4955314;29;20425;-90
2021/08/04 00:36:00;;;;;;;17.20;5.00;;;13.20;99.90;;;;;;4960924;29;20031;-90
2021/08/04 00:38:26;;;;;;;9.68;4.90;;;13.20;99.90;;;;;;4972616;29;20039;-90
2021/08/04 00:40:51;;;;;;;7.30;4.90;;;13.20;99.90;;;;;;4967649;29;20067;-90
2021/08/04 00:43:17;;;;;;;7.13;4.40;;;13.10;99.90;;;;;;4966185;29;20273;-90
2021/08/04 00:45:43;;;;;;;6.97;4.60;;;13.10;99.90;;;;;;4963486;29;20030;-90
2021/08/04 00:48:09;;;;;;;7.53;4.90;;;13.10;99.90;;;;;;4961346;29;20441;-91
2021/08/04 00:50:35;;;;;;;8.35;4.78;;;13.10;99.90;;;;;;4960420;29;20048;-91
2021/08/04 00:53:15;;;;;;;11.55;4.70;;;13.00;99.90;;;;;;4955419;29;20027;-91
2021/08/04 00:55:41;;;;;;;9.40;5.25;;;13.00;99.90;;;;;;4954737;29;20034;-91
2021/08/04 00:58:07;;;;;;;8.73;5.18;;;13.00;99.90;;;;;;4955700;29;20028;-92
2021/08/04 01:00:32;;;;;;;11.20;5.10;;;12.90;99.90;;;;;;4955023;28;20497;-91
2021/08/04 01:03:04;;;;;;;7.68;5.45;;;12.90;99.90;;;;;;4955295;29;20035;-89
2021/08/04 01:05:43;;;;;;;8.18;5.60;;;12.90;99.90;;;;;;4955520;29;20035;-92
2021/08/04 01:08:14;;;;;;;11.50;5.35;;;12.90;99.90;;;;;;4954856;29;20485;-93
2021/08/04 01:10:45;;;;;;;12.38;5.35;;;12.90;99.90;;;;;;4954779;29;20144;-89
2021/08/04 01:13:13;;;;;;;;;;;12.80;99.90;;;;;;4954950;29;20027;-92
2021/08/04 01:15:46;;;;;;;8.25;5.40;;;12.70;99.90;;;;;;4954673;29;19910;-92
2021/08/04 01:18:19;;;;;;;6.05;4.50;;;12.60;99.90;;;;;;4954572;29;20027;-93
2021/08/04 01:20:45;;;;;;;9.43;5.53;;;12.60;99.90;;;;;;4954599;29;20051;-89
2021/08/04 01:23:17;;;;;;;8.38;5.15;;;12.50;99.90;;;;;;4954554;29;20102;-92
2021/08/04 01:26:02;;;;;;;6.80;4.85;;;12.50;99.90;;;;;;4954883;29;20039;-92
2021/08/04 01:28:38;;;;;;;8.02;5.00;;;12.40;99.90;;;;;;4954670;29;20031;-91
2021/08/04 01:31:10;;;;;;;9.57;5.38;;;12.40;99.90;;;;;;4954533;29;20020;-92
2021/08/04 01:33:39;;;;;;;7.88;5.10;;;12.30;99.90;;;;;;4955515;28;20027;-92
2021/08/04 01:36:08;;;;;;;7.72;4.90;;;12.40;99.90;;;;;;4958938;29;20047;-91
2021/08/04 01:38:34;;;;;;;9.02;4.95;;;12.40;99.90;;;;;;4958070;29;20031;-92
2021/08/04 01:41:01;;;;;;;8.65;5.10;;;12.30;99.90;;;;;;4958753;29;20389;-93
2021/08/04 01:43:28;;;;;;;13.27;5.40;;;12.30;99.90;;;;;;4958239;29;20058;-92
2021/08/04 01:45:56;;;;;;;7.95;5.18;;;12.30;99.90;;;;;;4958509;29;20035;-92
2021/08/04 01:48:23;;;;;;;8.20;4.95;;;12.30;99.90;;;;;;4959059;29;20039;-92
2021/08/04 01:50:51;;;;;;;7.32;5.28;;;12.20;99.90;;;;;;4958664;29;20083;-89
2021/08/04 01:53:18;;;;;;;6.97;5.25;;;12.20;99.90;;;;;;4958247;29;20465;-93
2021/08/04 01:55:44;;;;;;;6.32;4.95;;;12.20;99.90;;;;;;4958498;29;20032;-93
2021/08/04 01:58:10;;;;;;;9.02;5.45;;;12.20;99.90;;;;;;4957906;29;20035;-92
2021/08/04 02:00:36;;;;;;;8.57;5.70;;;12.20;99.90;;;;;;4958115;28;20078;-89
2021/08/04 02:03:01;;;;;;;8.85;5.40;;;12.20;99.90;;;;;;4958170;29;20489;-89
2021/08/04 02:05:27;;;;;;;7.95;5.30;;;12.20;99.90;;;;;;4958423;29;20058;-92
2021/08/04 02:08:07;;;;;;;8.40;5.15;;;12.20;99.90;;;;;;4957326;29;20039;-91
2021/08/04 02:10:52;;;;;;;9.00;5.30;;;12.10;99.90;;;;;;4958381;29;20027;-92
2021/08/04 02:13:36;;;;;;;10.88;5.75;;;12.10;99.90;;;;;;4957978;29;20495;-92
2021/08/04 02:16:26;;;;;;;6.68;4.80;;;12.10;99.90;;;;;;4957783;29;20035;-89
2021/08/04 02:19:03;;;;;;;11.40;5.07;;;12.10;99.90;;;;;;4957436;29;20043;-92
2021/08/04 02:21:32;;;;;;;8.57;5.38;;;12.10;99.90;;;;;;4958383;29;20051;-92
2021/08/04 02:23:59;;;;;;;9.15;5.15;;;12.00;99.90;;;;;;4957539;29;20030;-92
2021/08/04 02:26:28;;;;;;;8.10;5.18;;;12.00;99.90;;;;;;4957910;29;20036;-94
2021/08/04 02:28:56;;;;;;;8.40;5.65;;;12.00;99.90;;;;;;4957147;29;20544;-92
2021/08/04 02:31:22;;;;;;;8.00;5.13;;;12.00;99.90;;;;;;4957476;29;20050;-92
2021/08/04 02:33:48;;;;;;;8.48;5.55;;;12.00;99.90;;;;;;4957240;29;20142;-92
2021/08/04 02:36:14;;;;;;;8.65;5.50;;;11.90;99.90;;;;;;4957835;29;20546;-92
2021/08/04 02:38:40;;;;;;;8.02;6.30;;;11.90;99.90;;;;;;4962711;29;20041;-91
2021/08/04 02:41:06;;;;;;;11.27;6.45;;;11.80;99.90;;;;;;4974910;29;20031;-91
2021/08/04 02:43:32;;;;;;;9.63;6.25;;;11.60;99.90;;;;;;4959713;29;20070;-90
2021/08/04 02:45:59;;;;;;;8.00;5.85;;;11.60;99.90;;;;;;4974522;28;20042;-91
2021/08/04 02:48:26;;;;;;;9.70;6.15;;;11.60;99.90;;;;;;4977292;29;20031;-91
2021/08/04 02:50:58;;;;;;;6.97;4.95;;;11.60;99.90;;;;;;4978837;28;20110;-91
2021/08/04 02:53:25;;;;;;;8.68;5.32;;;11.60;99.90;;;;;;4979787;28;20027;-90
2021/08/04 02:55:52;;;;;;;10.05;5.70;;;11.60;99.90;;;;;;4979253;28;20066;-92
2021/08/04 02:58:18;;;;;;;9.65;5.85;;;11.50;99.90;;;;;;4962710;29;20490;-90
2021/08/04 03:00:44;;;;;;;7.85;5.72;;;11.50;99.90;;;;;;4961093;28;20066;-91
2021/08/04 03:03:10;;;;;;;10.00;6.20;;;11.50;99.90;;;;;;4960612;29;20035;-92
2021/08/04 03:05:36;;;;;;;9.73;5.55;;;11.50;99.90;;;;;;4959355;29;20030;-90
2021/08/04 03:08:02;;;;;;;9.77;5.90;;;11.50;99.90;;;;;;4957518;29;20090;-90
2021/08/04 03:10:28;;;;;;;10.10;4.75;;;11.50;99.90;;;;;;4957976;29;20027;-91
2021/08/04 03:12:54;;;;;;;9.85;5.70;;;11.50;99.90;;;;;;4957449;29;20404;-91
2021/08/04 03:15:19;;;;;;;8.68;5.20;;;11.50;99.90;;;;;;4957844;29;20027;-91
2021/08/04 03:17:45;;;;;;;8.02;5.28;;;11.60;99.90;;;;;;4957850;29;20087;-91
2021/08/04 03:20:12;;;;;;;10.73;5.63;;;11.50;99.90;;;;;;4957376;29;20078;-91
2021/08/04 03:22:48;;;;;;;8.50;5.55;;;11.50;99.90;;;;;;4957441;29;20035;-91
2021/08/04 03:25:16;;;;;;;9.48;5.95;;;11.40;99.90;;;;;;4957425;29;20031;-92
2021/08/04 03:27:42;;;;;;;9.63;6.25;;;11.40;99.90;;;;;;4957223;29;20058;-90
2021/08/04 03:30:09;;;;;;;10.05;6.63;;;11.40;99.90;;;;;;4957306;29;20027;-90
2021/08/04 03:32:37;;;;;;;10.20;6.70;;;11.30;99.90;;;;;;4956893;29;20030;-93
2021/08/04 03:35:04;;;;;;;9.50;6.50;;;11.30;99.90;;;;;;4957226;29;20650;-91
2021/08/04 03:37:30;;;;;;;10.10;6.70;;;11.20;99.90;;;;;;4957402;29;20027;-91
2021/08/04 03:39:55;;;;;;;9.07;5.78;;;11.30;99.90;;;;;;4957403;29;20102;-93
2021/08/04 03:42:21;;;;;;;10.45;5.82;;;11.20;99.90;;;;;;4956633;29;20031;-92
2021/08/04 03:44:47;;;;;;;11.38;6.55;;;11.20;99.90;;;;;;4956600;29;20061;-92
2021/08/04 03:47:12;;;;;;;10.95;6.70;;;11.20;99.90;;;;;;4956600;29;20093;-92
2021/08/04 03:49:38;;;;;;;8.35;5.82;;;11.30;99.90;;;;;;4956525;29;20039;-92
2021/08/04 03:52:04;;;;;;;10.55;6.55;;;11.30;99.90;;;;;;4956737;29;20028;-92
2021/08/04 03:54:30;;;;;;;10.38;6.68;;;11.30;99.90;;;;;;4956268;29;20090;-90
2021/08/04 03:56:55;;;;;;;10.52;6.75;;;11.30;99.90;;;;;;4956020;28;20477;-90
2021/08/04 03:59:22;;;;;;;12.30;6.88;;;11.30;99.90;;;;;;4956521;28;20034;-91
2021/08/04 04:01:48;;;;;;;11.65;7.25;;;11.30;99.90;;;;;;4956090;29;20074;-91
2021/08/04 04:04:13;;;;;;;11.48;6.78;;;11.30;99.90;;;;;;4956694;29;20031;-91
2021/08/04 04:06:39;;;;;;;11.20;6.25;;;11.30;99.90;;;;;;4955999;29;20033;-91
2021/08/04 04:09:04;;;;;;;12.00;6.80;;;11.30;99.90;;;;;;4956511;29;20042;-91
2021/08/04 04:11:30;;;;;;;9.60;6.55;;;11.30;99.90;;;;;;4960660;29;20031;-91
2021/08/04 04:13:56;;;;;;;10.73;5.90;;;11.20;99.90;;;;;;4965130;29;20036;-91
2021/08/04 04:16:22;;;;;;;11.63;6.75;;;11.20;99.90;;;;;;4965167;29;20059;-92
2021/08/04 04:18:51;;;;;;;10.20;6.43;;;11.20;99.90;;;;;;4958554;29;20102;-92
2021/08/04 04:21:17;;;;;;;10.88;6.43;;;11.10;99.90;;;;;;4956018;29;20114;-92
2021/08/04 04:23:42;;;;;;;9.88;7.15;;;11.00;99.90;;;;;;4955905;29;20485;-91
2021/08/04 04:26:08;;;;;;;11.43;6.65;;;10.90;99.90;;;;;;4955433;29;20054;-91
2021/08/04 04:28:34;;;;;;;11.38;7.40;;;10.80;99.90;;;;;;4956146;29;20027;-91
2021/08/04 04:31:00;;;;;;;10.80;7.35;;;10.80;99.90;;;;;;4955707;29;20078;-91
2021/08/04 04:33:25;;;;;;;11.80;6.80;;;10.70;99.90;;;;;;4955462;29;20086;-91
2021/08/04 04:35:51;;;;;;;12.85;6.07;;;10.70;99.90;;;;;;4955791;29;20023;-91
2021/08/04 04:38:17;;;;;;;11.20;6.53;;;10.70;99.90;;;;;;4955815;29;20024;-91
2021/08/04 04:40:42;;;;;;;9.10;6.38;;;10.70;99.90;;;;;;4955563;29;20071;-92
2021/08/04 04:43:08;;;;;;;13.40;7.18;;;10.70;99.90;;;;;;4955359;29;20073;-92
2021/08/04 04:45:36;;;;;;;10.57;7.10;;;10.70;99.90;;;;;;4955346;29;20027;-91
2021/08/04 04:48:02;;;;;;;12.35;7.07;;;10.70;99.90;;;;;;4955259;29;20062;-91
2021/08/04 04:50:28;;;;;;;14.00;7.40;;;10.70;99.90;;;;;;4955707;29;20023;-91
2021/08/04 04:52:53;;;;;;;13.50;7.93;;;10.70;99.90;;;;;;4955403;29;20389;-92
2021/08/04 04:55:19;;;;;;;12.02;7.32;;;10.80;99.90;;;;;;4955170;29;20019;-92
2021/08/04 04:57:45;;;;;;;9.82;7.15;;;10.80;99.90;;;;;;4955593;29;20034;-93
2021/08/04 05:00:11;;;;;;;12.43;7.55;;;10.80;99.90;;;;;;4955223;28;20031;-94
2021/08/04 05:02:38;;;;;;;13.32;6.97;;;10.80;99.90;;;;;;4956097;29;20042;-92
2021/08/04 05:05:05;;;;;;;12.23;7.70;;;10.70;99.90;;;;;;4956013;29;20031;-91
2021/08/04 05:07:31;;;;;;;12.10;7.25;;;10.70;99.90;;;;;;4958380;29;20083;-92
2021/08/04 05:09:56;;;;;;;10.07;6.60;;;10.70;99.90;;;;;;4967277;28;20023;-92
2021/08/04 05:12:22;;;;;;;10.93;6.50;;;10.70;99.90;;;;;;4971885;29;20414;-92
2021/08/04 05:14:48;;;;;;;10.73;7.07;;;10.70;99.90;;;;;;4969539;29;20038;-90
2021/08/04 05:17:13;;;;;;;10.30;6.60;;;10.70;99.90;;;;;;4968409;29;20039;-90
2021/08/04 05:19:40;;;;;;;11.10;7.40;;;10.60;99.90;;;;;;4967438;28;20168;-90
2021/08/04 05:22:06;;;;;;;12.93;8.35;;;10.60;99.90;;;;;;4971333;28;20039;-90
2021/08/04 05:24:31;;;;;;;12.40;8.00;;;10.50;99.90;;;;;;4967741;28;20122;-90
2021/08/04 05:26:57;;;;;;;11.73;7.82;;;10.50;99.90;;;;;;4962086;28;20074;-91
2021/08/04 05:29:23;;;;;;;12.43;8.02;;;10.50;99.90;;;;;;4961997;28;20034;-90
2021/08/04 05:31:48;;;;;;;12.45;7.85;;;10.40;99.90;;;;;;4961993;28;20084;-91
2021/08/04 05:34:14;;;;;;;12.98;7.57;;;10.40;99.90;;;;;;4962143;28;20023;-91
2021/08/04 05:36:40;;;;;;;12.65;7.97;;;10.50;99.90;;;;;;4962397;28;20039;-91
2021/08/04 05:39:05;;;;;;;14.20;7.82;;;10.50;99.90;;;;;;4961837;28;20026;-91
2021/08/04 05:41:31;;;;;;;10.98;7.40;;;10.50;99.90;;;;;;4962148;28;20042;-91
2021/08/04 05:43:57;;;;;;;12.35;7.60;;;10.50;99.90;;;;;;4961932;28;20031;-91
2021/08/04 05:46:22;;;;;;;10.77;7.15;;;10.50;99.90;;;;;;4961138;28;20026;-90
2021/08/04 05:48:48;;;;;;;13.40;8.30;;;10.60;99.90;;;;;;4961508;28;20023;-90
2021/08/04 05:51:14;;;;;;;13.18;7.38;;;10.70;99.90;;;;;;4961847;28;20027;-91
2021/08/04 05:53:40;;;;;;;13.70;8.32;;;10.70;99.90;;;;;;4961033;28;20046;-91
2021/08/04 05:56:06;;;;;;;12.57;7.70;;;10.70;99.90;;;;;;4961745;28;20441;-91
2021/08/04 05:58:32;;;;;;;12.45;8.05;;;10.70;99.90;;;;;;4962029;28;20117;-90
2021/08/04 06:00:57;;;;;;;14.73;8.23;;;10.70;99.90;;;;;;4961468;28;20019;-90
2021/08/04 06:03:23;;;;;;;11.32;7.22;;;10.60;99.90;;;;;;4961709;28;20126;-90
2021/08/04 06:05:49;;;;;;;13.50;8.00;;;10.70;99.90;;;;;;4964466;28;20101;-91
2021/08/04 06:08:14;;;;;;;12.40;7.60;;;10.70;99.90;;;;;;4961222;28;20444;-91
2021/08/04 06:10:40;;;;;;;13.10;8.18;;;10.80;99.90;;;;;;4961342;28;20055;-91
2021/08/04 06:13:06;;;;;;;13.60;8.32;;;10.80;99.90;;;;;;4961101;28;20070;-91
2021/08/04 06:15:31;;;;;;;15.35;8.35;;;10.90;99.90;;;;;;4960054;28;20027;-91
2021/08/04 06:17:57;;;;;;;15.40;8.35;;;10.90;99.90;;;;;;4959042;28;20805;-91
2021/08/04 06:20:23;;;;;;;14.88;8.63;;;10.90;99.90;;;;;;4958933;28;20571;-91
2021/08/04 06:22:48;;;;;;;15.07;8.60;;;10.90;99.90;;;;;;4960470;28;20035;-92
2021/08/04 06:25:14;;;;;;;13.63;8.38;;;11.00;99.90;;;;;;4960534;28;20018;-91
2021/08/04 06:27:40;;;;;;;16.20;8.43;;;11.00;99.90;;;;;;4959974;28;20395;-90
2021/08/04 06:38:16;;;;;;;13.85;8.85;;;11.20;99.90;;;;;;5129552;23;20364;-94
2021/08/04 06:40:41;;;;;;;12.55;8.20;;;11.30;99.90;;;;;;4960762;29;20071;-94
2021/08/04 06:43:07;;;;;;;14.07;8.68;;;11.40;99.90;;;;;;4943928;29;20035;-92
2021/08/04 06:45:32;;;;;;;12.57;8.30;;;11.50;99.90;;;;;;4942361;29;20031;-92
2021/08/04 06:47:58;;;;;;;16.00;9.02;;;11.60;99.90;;;;;;4942492;29;20345;-93
2021/08/04 06:50:26;;;;;;;13.90;8.23;;;11.70;99.90;;;;;;4941938;28;20038;-93
2021/08/04 06:52:53;;;;;;;16.25;8.90;;;11.80;99.90;;;;;;4942035;29;20058;-94
2021/08/04 06:55:19;;;;;;;14.23;8.23;;;11.90;99.90;;;;;;4941891;29;20342;-92
2021/08/04 06:57:44;;;;;;;14.20;8.32;;;12.00;99.90;;;;;;4925430;29;20045;-91
2021/08/04 07:00:10;;;;;;;13.70;8.73;;;12.10;99.90;;;;;;4941603;28;20034;-93
2021/08/04 07:02:36;;;;;;;12.38;8.25;;;12.20;99.90;;;;;;4941209;28;20039;-92
2021/08/04 07:05:03;;;;;;;22.73;9.70;;;12.30;99.90;;;;;;4951424;28;20547;-95
2021/08/04 07:07:28;;;;;;;16.88;8.95;;;12.40;99.90;;;;;;4949527;29;20140;-95
2021/08/04 07:09:54;;;;;;;14.63;8.48;;;12.50;99.90;;;;;;4960082;28;20491;-95
2021/08/04 07:12:20;;;;;;;12.15;8.20;;;12.60;99.90;;;;;;4960114;28;20031;-95
2021/08/04 07:14:45;;;;;;;13.02;8.25;;;12.60;99.90;;;;;;4964965;28;20030;-95
2021/08/04 07:17:14;;;;;;;11.98;8.23;;;12.70;99.90;;;;;;4981669;28;20038;-95
2021/08/04 07:19:40;;;;;;;15.10;8.52;;;12.90;99.90;;;;;;4975720;28;20031;-95
2021/08/04 07:22:05;;;;;;;16.80;9.13;;;13.00;99.90;;;;;;4959752;28;20107;-94
2021/08/04 07:24:31;;;;;;;14.43;9.63;;;13.10;99.90;;;;;;4958554;28;20027;-95
2021/08/04 07:26:57;;;;;;;15.95;8.55;;;13.20;99.90;;;;;;4955238;29;20027;-95
2021/08/04 07:29:23;;;;;;;14.18;8.30;;;13.30;99.90;;;;;;4958355;28;20026;-94
2021/08/04 07:31:48;;;;;;;17.17;9.10;;;13.30;99.90;;;;;;4960280;28;20491;-94
2021/08/04 07:34:15;;;;;;;14.02;8.70;;;13.50;99.90;;;;;;4960452;28;20034;-93
2021/08/04 07:36:42;;;;;;;12.30;8.25;;;13.60;99.90;;;;;;4960731;28;20062;-94
2021/08/04 07:39:07;;;;;;;13.93;8.55;;;13.70;99.90;;;;;;4963410;28;20029;-95
2021/08/04 07:41:33;;;;;;;16.50;8.60;;;13.80;99.90;;;;;;4965154;28;20030;-95
2021/08/04 07:43:59;;;;;;;13.07;8.27;;;13.90;99.90;;;;;;4960507;28;20487;-95
2021/08/04 10:50:12;;;;;;;11.73;5.35;;;23.60;73.70;;;;;;5395414;23;20114;-96
2021/08/04 11:25:38;;;;;;;9.98;5.40;;;24.00;70.90;;;;;;4983346;28;20051;-95
2021/08/04 11:28:20;;;;;;;9.68;6.03;;;24.30;70.70;;;;;;4975992;28;20046;-95
2021/08/04 11:30:55;;;;;;;9.43;5.25;;;24.50;69.90;;;;;;4975582;28;20030;-96
2021/08/04 11:33:22;;;;;;;10.43;5.07;;;24.50;69.50;;;;;;4967714;28;20038;-95
2021/08/04 11:36:45;;;;;;;8.15;4.45;;;24.20;69.40;;;;;;4968566;28;20031;-96
2021/08/04 11:39:16;;;;;;;8.55;4.70;;;24.10;68.90;;;;;;4912668;29;20617;-96
2021/08/04 11:50:11;;;;;;;5.50;3.85;;;23.70;67.70;;;;;;4985707;28;20043;-96
2021/08/04 11:52:42;;;;;;;4.97;2.95;;;23.70;67.70;;;;;;4986649;28;20031;-96
2021/08/04 11:55:11;;;;;;;4.32;3.35;;;23.60;67.80;;;;;;4972220;28;20031;-96
2021/08/04 11:57:47;;;;;;;6.75;3.47;;;23.50;67.90;;;;;;4978661;28;20054;-96
2021/08/04 12:00:43;;;;;;;3.72;2.97;;;23.40;67.90;;;;;;4977083;28;20033;-96
2021/08/04 12:03:18;;;;;;;3.20;2.20;;;23.50;67.90;;;;;;4976751;28;20057;-96
2021/08/04 12:06:21;;;;;;;4.75;2.47;;;23.60;67.80;;;;;;4972149;28;20010;-96
2021/08/04 12:08:47;;;;;;;3.63;2.45;;;23.60;67.80;;;;;;4916538;29;20103;-96
2021/08/04 12:11:13;;;;;;;4.47;2.30;;;23.50;68.10;;;;;;4916089;29;20138;-96
2021/08/04 12:13:40;;;;;;;3.58;2.33;;;23.40;68.40;;;;;;4913040;29;20029;-96
2021/08/04 12:16:09;;;;;;;3.83;2.35;;;23.40;68.60;;;;;;4915483;29;20044;-96
2021/08/04 12:18:47;;;;;;;6.28;2.40;;;23.50;68.50;;;;;;4926062;29;20100;-95
2021/08/04 12:21:19;;;;;;;2.78;2.15;;;23.40;68.10;;;;;;4912486;29;20042;-96
2021/08/04 12:23:57;;;;;;;4.53;2.72;;;23.20;68.00;;;;;;4929623;29;20418;-96
2021/08/04 12:26:25;;;;;;;3.58;2.60;;;23.00;68.10;;;;;;4912965;29;20028;-96
2021/08/04 12:28:51;;;;;;;3.70;2.17;;;22.80;68.70;;;;;;4928324;29;20043;-96
2021/08/04 12:31:17;;;;;;;2.40;2.17;;;22.60;69.30;;;;;;4912496;29;20073;-96
2021/08/04 12:33:56;;;;;;;4.60;2.00;;;22.30;69.90;;;;;;4921338;29;20072;-96
2021/08/04 12:36:34;;;;;;;2.22;2.03;;;22.20;70.50;;;;;;4936339;29;20033;-96
2021/08/04 12:39:01;;;;;;;5.28;2.72;;;22.00;71.30;;;;;;4921848;29;20035;-96
2021/08/04 12:41:30;;;;;;;2.60;1.85;;;21.90;71.80;;;;;;4938113;29;20028;-96
2021/08/04 12:43:56;;;;;;;2.70;2.30;;;21.80;72.10;;;;;;4962753;28;20095;-95
2021/08/04 12:46:34;;;;;;;3.42;1.80;;;21.70;72.30;;;;;;4962529;29;20027;-96
2021/08/04 12:49:00;;;;;;;3.20;2.00;;;21.60;72.60;;;;;;4958078;29;20039;-96
2021/08/04 12:51:26;;;;;;;2.00;1.80;;;21.50;72.90;;;;;;4950641;29;20082;-95
2021/08/04 12:54:04;;;;;;;3.78;2.55;;;21.50;73.30;;;;;;4964715;29;20472;-96
2021/08/04 12:56:32;;;;;;;4.68;2.55;;;21.40;73.40;;;;;;4946532;29;20506;-96
2021/08/04 12:59:04;;;;;;;3.15;2.10;;;21.40;73.40;;;;;;4946661;29;20031;-96
2021/08/04 13:01:34;;;;;;;3.83;2.05;;;21.40;73.50;;;;;;4949228;28;20030;-96
2021/08/04 13:04:15;;;;;;;;;;;21.30;73.60;;;;;;4966607;29;20042;-96
2021/08/04 13:06:52;;;;;;;;;;;21.10;74.00;;;;;;4951727;29;19906;-96
2021/08/04 13:09:29;;;;;;;2.75;2.13;;;20.90;74.30;;;;;;4950889;29;19932;-96
2021/08/04 18:56:52;;;;;;;7.75;3.55;;;18.40;99.90;;;;;;5997836;23;20024;-95
2021/08/04 19:27:29;;;;;;;9.32;4.15;;;17.80;99.90;;;;;;5032485;23;20050;-95
2021/08/04 19:32:33;;;;;;;4.28;3.42;;;17.80;99.90;;;;;;5651583;23;20060;-95
2021/08/04 21:42:35;;;;;;;13.43;6.93;;;16.30;99.90;;;;;;5534227;23;20059;-96
2021/08/04 21:45:09;;;;;;;12.40;7.80;;;16.30;99.90;;;;;;4998365;28;20007;-96
2021/08/04 21:48:00;;;;;;;9.75;7.05;;;16.20;99.90;;;;;;4985290;28;20038;-96
2021/08/04 21:50:31;;;;;;;11.90;7.43;;;16.20;99.90;;;;;;4983527;28;20082;-96
2021/08/04 21:52:57;;;;;;;;;;;16.20;99.90;;;;;;4984602;28;20034;-96
2021/08/04 21:55:24;;;;;;;9.52;6.75;;;16.20;99.90;;;;;;4999286;28;19894;-95
2021/08/04 21:57:53;;;;;;;8.50;6.38;;;16.20;99.90;;;;;;4984296;28;20057;-96
2021/08/04 22:00:42;;;;;;;12.85;7.13;;;16.20;99.90;;;;;;4975706;28;20031;-96
2021/08/04 22:03:11;;;;;;;10.63;7.20;;;16.10;99.90;;;;;;4991469;28;20031;-95
2021/08/04 22:05:43;;;;;;;10.90;7.30;;;16.10;99.90;;;;;;4999540;28;20015;-96
2021/08/04 22:14:03;;;;;;;12.95;7.78;;;16.00;99.90;;;;;;5619055;23;20098;-95
2021/08/04 22:24:25;;;;;;;11.80;7.65;;;15.90;99.90;;;;;;4994691;23;20046;-96
2021/08/04 22:31:59;;;;;;;15.75;9.43;;;15.90;99.90;;;;;;4963412;28;20122;-95
2021/08/04 22:34:25;;;;;;;17.23;9.23;;;16.00;99.90;;;;;;4961036;29;20038;-95
2021/08/04 22:36:51;;;;;;;12.57;7.85;;;16.00;99.90;;;;;;4971174;28;20015;-96
2021/08/04 22:39:22;;;;;;;9.75;6.90;;;16.00;99.90;;;;;;5260307;23;20048;-95
2021/08/04 22:41:51;;;;;;;12.75;8.10;;;16.00;99.90;;;;;;4959949;29;20034;-96
2021/08/04 22:44:17;;;;;;;21.65;8.43;;;16.00;99.90;;;;;;4959352;29;20063;-96
2021/08/04 22:46:43;;;;;;;14.85;7.55;;;16.00;99.90;;;;;;4956854;29;20023;-96
2021/08/04 22:49:09;;;;;;;20.45;7.50;;;15.90;99.90;;;;;;4952567;29;20044;-95
2021/08/04 22:51:34;;;;;;;11.60;7.25;;;15.90;99.90;;;;;;4948527;29;20027;-94
2021/08/04 22:54:06;;;;;;;14.27;7.35;;;15.90;99.90;;;;;;4953480;29;20035;-96
2021/08/04 22:56:36;;;;;;;11.43;6.47;;;15.90;99.90;;;;;;4955144;29;20083;-95
2021/08/04 22:59:01;;;;;;;7.63;5.65;;;15.90;99.90;;;;;;4950177;29;20036;-94
2021/08/04 23:01:27;;;;;;;7.95;5.53;;;15.90;99.90;;;;;;4922100;29;20031;-95
2021/08/04 23:03:53;;;;;;;11.95;5.82;;;15.80;99.90;;;;;;4936995;29;20046;-95
2021/08/04 23:06:18;;;;;;;14.10;5.60;;;15.80;99.90;;;;;;4938471;29;20047;-95
2021/08/04 23:08:44;;;;;;;6.30;4.88;;;15.80;99.90;;;;;;4937912;29;20024;-95
2021/08/04 23:11:10;;;;;;;5.65;4.28;;;15.80;99.90;;;;;;4937263;29;20028;-95
2021/08/04 23:13:36;;;;;;;7.43;5.45;;;15.70;99.90;;;;;;4937061;29;20035;-95
2021/08/04 23:16:02;;;;;;;7.57;6.28;;;15.70;99.90;;;;;;4936982;29;20028;-95
2021/08/04 23:18:29;;;;;;;9.52;6.13;;;15.60;99.90;;;;;;4944089;29;20051;-95
2021/08/04 23:21:08;;;;;;;12.85;6.45;;;15.60;99.90;;;;;;4955842;29;20030;-96
2021/08/04 23:23:52;;;;;;;14.10;7.05;;;15.50;99.90;;;;;;4959260;29;20048;-95
2021/08/04 23:26:21;;;;;;;16.75;6.82;;;15.50;99.90;;;;;;4959299;29;20030;-95
2021/08/04 23:36:34;;;;;;;12.93;7.13;;;15.40;99.90;;;;;;5545491;23;20047;-96
2021/08/04 23:39:00;;;;;;;9.73;6.97;;;15.40;99.90;;;;;;4960169;29;20059;-96
2021/08/04 23:41:26;;;;;;;11.55;6.75;;;15.40;99.90;;;;;;4954153;29;20042;-96
2021/08/04 23:43:54;;;;;;;8.77;6.72;;;15.40;99.90;;;;;;4972191;28;20049;-96
2021/08/04 23:48:58;;;;;;;13.07;7.53;;;15.40;99.90;;;;;;5340290;23;20059;-96
2021/08/04 23:51:30;;;;;;;10.85;8.13;;;15.40;99.90;;;;;;4980900;28;20011;-95
2021/08/04 23:53:56;;;;;;;13.02;8.25;;;15.30;99.90;;;;;;4977687;28;20023;-96
2021/08/04 23:56:21;;;;;;;11.07;7.60;;;15.30;99.90;;;;;;4997064;28;20041;-95
2021/08/04 23:58:47;;;;;;;12.98;7.85;;;15.30;99.90;;;;;;4981780;28;20007;-96
